createdAt,value
2022-12-18T00:00:54.686Z,110.22
2022-12-18T00:03:24.575Z,101.10
2022-12-18T00:05:55.808Z,106.68
2022-12-18T00:08:25.750Z,100.97
2022-12-18T00:10:55.660Z,97.53
2022-12-18T00:13:32.948Z,104.85
2022-12-18T00:16:06.208Z,103.50
2022-12-18T00:18:36.650Z,104.20
2022-12-18T00:21:09.144Z,102.50
2022-12-18T00:23:40.871Z,105.45
2022-12-18T00:26:14.783Z,102.63
2022-12-18T00:28:48.140Z,121.13
2022-12-18T00:31:20.091Z,100.85
2022-12-18T00:33:53.983Z,108.05
2022-12-18T00:36:27.300Z,103.80
2022-12-18T00:38:58.381Z,107.15
2022-12-18T00:41:41.697Z,99.70
2022-12-18T00:44:16.349Z,98.68
2022-12-18T00:46:46.676Z,106.35
2022-12-18T00:49:16.557Z,101.85
2022-12-18T00:51:46.949Z,109.35
2022-12-18T00:54:17.082Z,94.68
2022-12-18T00:56:50.208Z,104.88
2022-12-18T00:59:23.096Z,99.97
2022-12-18T01:01:53.065Z,114.82
2022-12-18T01:04:23.000Z,116.93
2022-12-18T01:06:52.807Z,114.05
2022-12-18T01:09:22.569Z,106.18
2022-12-18T01:11:52.378Z,104.53
2022-12-18T01:14:24.884Z,100.57
2022-12-18T01:16:54.716Z,106.05
2022-12-18T01:19:24.844Z,113.03
2022-12-18T01:21:54.864Z,103.68
2022-12-18T01:24:24.860Z,117.45
2022-12-18T01:26:54.797Z,106.85
2022-12-18T01:29:27.263Z,106.07
2022-12-18T01:31:59.214Z,108.55
2022-12-18T01:34:29.130Z,108.75
2022-12-18T01:36:59.048Z,114.65
2022-12-18T01:39:29.562Z,105.63
2022-12-18T01:42:05.505Z,101.88
2022-12-18T01:45:01.200Z,107.88
2022-12-18T01:47:35.776Z,105.25
2022-12-18T01:50:10.673Z,108.55
2022-12-18T01:52:43.259Z,105.85
2022-12-18T01:55:17.832Z,110.55
2022-12-18T01:57:47.864Z,106.15
2022-12-18T02:00:23.552Z,100.35
2022-12-18T02:02:54.038Z,104.43
2022-12-18T02:05:32.906Z,107.38
2022-12-18T02:08:12.408Z,96.43
2022-12-18T02:10:50.469Z,106.10
2022-12-18T02:13:27.796Z,92.07
2022-12-18T02:16:06.544Z,93.50
2022-12-18T02:18:39.585Z,100.40
2022-12-18T02:21:21.662Z,98.55
2022-12-18T02:23:59.994Z,100.63
2022-12-18T02:26:38.933Z,92.03
2022-12-18T02:29:14.016Z,101.00
2022-12-18T02:31:49.477Z,97.32
2022-12-18T02:34:21.198Z,91.70
2022-12-18T02:36:53.921Z,100.05
2022-12-18T02:39:25.673Z,97.93
2022-12-18T02:41:58.285Z,91.15
2022-12-18T02:44:28.200Z,92.63
2022-12-18T02:46:58.333Z,91.40
2022-12-18T02:49:38.195Z,90.70
2022-12-18T02:52:17.510Z,93.03
2022-12-18T02:55:01.372Z,86.07
2022-12-18T02:57:39.082Z,95.68
2022-12-18T03:00:14.815Z,84.78
2022-12-18T03:02:51.313Z,86.63
2022-12-18T03:05:24.932Z,92.65
2022-12-18T03:08:02.597Z,89.82
2022-12-18T03:10:36.067Z,88.95
2022-12-18T03:13:12.619Z,84.53
2022-12-18T03:15:49.455Z,87.82
2022-12-18T03:18:23.637Z,81.43
2022-12-18T03:20:54.967Z,81.28
2022-12-18T03:23:28.072Z,84.95
2022-12-18T03:26:07.325Z,90.53
2022-12-18T03:28:43.443Z,88.38
2022-12-18T03:31:16.846Z,82.95
2022-12-18T03:33:50.929Z,87.40
2022-12-18T03:36:21.432Z,91.97
2022-12-18T03:38:51.436Z,92.38
2022-12-18T03:41:29.541Z,77.93
2022-12-18T03:44:07.827Z,87.28
2022-12-18T03:46:47.241Z,80.70
2022-12-18T03:49:25.513Z,84.25
2022-12-18T03:52:06.601Z,79.55
2022-12-18T03:54:38.260Z,78.45
2022-12-18T03:57:13.514Z,78.05
2022-12-18T03:59:48.925Z,74.45
2022-12-18T04:02:20.402Z,79.38
2022-12-18T04:04:51.629Z,81.07
2022-12-18T04:07:22.288Z,69.78
2022-12-18T04:09:55.510Z,68.07
2022-12-18T04:12:27.509Z,77.70
2022-12-18T04:15:00.066Z,72.22
2022-12-18T04:17:29.996Z,70.35
2022-12-18T04:19:59.851Z,70.47
2022-12-18T04:22:29.793Z,73.53
2022-12-18T04:24:59.651Z,77.13
2022-12-18T04:27:29.445Z,77.15
2022-12-18T04:30:02.350Z,73.05
2022-12-18T04:32:32.200Z,81.65
2022-12-18T04:35:02.118Z,75.60
2022-12-18T04:37:31.930Z,71.95
2022-12-18T04:40:01.789Z,80.45
2022-12-18T04:42:31.795Z,71.13
2022-12-18T04:45:04.324Z,80.72
2022-12-18T04:47:34.837Z,75.43
2022-12-18T04:50:04.738Z,70.82
2022-12-18T04:52:34.592Z,75.43
2022-12-18T04:55:04.397Z,67.05
2022-12-18T04:57:34.288Z,72.40
2022-12-18T05:00:08.741Z,72.15
2022-12-18T05:02:38.702Z,71.68
2022-12-18T05:05:09.861Z,70.95
2022-12-18T05:07:42.804Z,71.97
2022-12-18T05:10:13.364Z,72.82
2022-12-18T05:12:59.036Z,70.68
2022-12-18T05:15:35.749Z,82.25
2022-12-18T05:18:06.347Z,73.25
2022-12-18T05:20:36.173Z,80.55
2022-12-18T05:23:06.044Z,82.30
2022-12-18T05:25:35.909Z,76.97
2022-12-18T05:28:06.085Z,77.55
2022-12-18T05:30:38.564Z,70.65
2022-12-18T05:33:08.356Z,72.75
2022-12-18T05:35:38.193Z,68.97
2022-12-18T05:38:07.993Z,75.32
2022-12-18T05:40:37.856Z,73.93
2022-12-18T05:43:07.828Z,79.93
2022-12-18T05:45:40.903Z,84.38
2022-12-18T05:48:11.745Z,77.43
2022-12-18T05:50:42.596Z,75.10
2022-12-18T05:53:12.609Z,76.45
2022-12-18T05:55:43.860Z,80.03
2022-12-18T05:58:15.365Z,76.00
2022-12-18T06:00:49.901Z,80.05
2022-12-18T06:03:19.849Z,71.50
2022-12-18T06:05:49.798Z,72.72
2022-12-18T06:08:19.680Z,74.70
2022-12-18T06:10:55.481Z,72.45
2022-12-18T06:13:25.608Z,73.07
2022-12-18T06:15:58.094Z,79.47
2022-12-18T06:18:27.910Z,73.65
2022-12-18T06:21:01.187Z,71.43
2022-12-18T06:23:31.223Z,72.10
2022-12-18T06:26:01.133Z,78.20
2022-12-18T06:28:30.951Z,67.57
2022-12-18T06:31:03.513Z,64.50
2022-12-18T06:33:33.457Z,73.85
2022-12-18T06:36:05.189Z,74.07
2022-12-18T06:38:35.736Z,70.55
2022-12-18T06:41:10.647Z,70.40
2022-12-18T06:43:41.351Z,67.20
2022-12-18T06:46:14.679Z,70.85
2022-12-18T06:48:44.651Z,66.32
2022-12-18T06:51:14.609Z,67.47
2022-12-18T06:53:44.448Z,70.72
2022-12-18T06:56:14.362Z,69.03
2022-12-18T06:58:44.814Z,63.45
2022-12-18T07:01:17.589Z,71.65
2022-12-18T07:03:47.557Z,75.07
2022-12-18T07:06:18.813Z,70.28
2022-12-18T07:08:48.819Z,68.72
2022-12-18T07:11:19.695Z,67.40
2022-12-18T07:13:50.453Z,65.78
2022-12-18T07:16:25.884Z,64.22
2022-12-18T07:18:56.467Z,69.68
2022-12-18T07:21:27.406Z,65.05
2022-12-18T07:23:57.561Z,65.70
2022-12-18T07:26:27.412Z,67.60
2022-12-18T07:29:02.293Z,69.40
2022-12-18T07:31:34.832Z,67.45
2022-12-18T07:34:04.673Z,61.67
2022-12-18T07:36:34.522Z,61.38
2022-12-18T07:39:04.408Z,63.78
2022-12-18T07:41:34.250Z,60.20
2022-12-18T07:44:04.196Z,64.15
2022-12-18T07:46:36.675Z,61.13
2022-12-18T07:49:06.637Z,62.38
2022-12-18T07:51:36.527Z,66.68
2022-12-18T07:54:06.597Z,55.63
2022-12-18T07:56:36.405Z,66.82
2022-12-18T07:59:06.201Z,61.20
2022-12-18T08:01:38.744Z,62.40
2022-12-18T08:04:08.638Z,65.00
2022-12-18T08:06:38.697Z,65.63
2022-12-18T08:09:09.917Z,60.42
2022-12-18T08:11:39.918Z,60.55
2022-12-18T08:14:09.807Z,66.25
2022-12-18T08:16:42.372Z,64.72
2022-12-18T08:19:15.317Z,64.15
2022-12-18T08:21:45.158Z,56.13
2022-12-18T08:24:14.986Z,60.33
2022-12-18T08:27:00.893Z,59.28
2022-12-18T08:29:34.786Z,63.22
2022-12-18T08:32:07.799Z,61.92
2022-12-18T08:34:37.957Z,59.65
2022-12-18T08:37:07.858Z,59.85
2022-12-18T08:39:37.816Z,61.60
2022-12-18T08:42:20.405Z,61.17
2022-12-18T08:44:50.381Z,60.35
2022-12-18T08:47:22.920Z,56.80
2022-12-18T08:49:52.765Z,59.15
2022-12-18T08:52:22.812Z,61.80
2022-12-18T08:54:52.627Z,62.92
2022-12-18T08:57:22.457Z,65.95
2022-12-18T08:59:52.544Z,63.38
2022-12-18T09:02:25.153Z,57.75
2022-12-18T09:04:57.621Z,61.05
2022-12-18T09:07:27.761Z,58.67
2022-12-18T09:09:57.639Z,63.67
2022-12-18T09:12:27.589Z,58.70
2022-12-18T09:14:57.479Z,63.22
2022-12-18T09:17:29.994Z,63.42
2022-12-18T09:19:59.846Z,62.17
2022-12-18T09:22:29.797Z,58.92
2022-12-18T09:24:59.653Z,60.58
2022-12-18T09:27:29.603Z,62.78
2022-12-18T09:29:59.465Z,57.65
2022-12-18T09:32:31.881Z,64.22
2022-12-18T09:35:02.596Z,60.45
2022-12-18T09:37:32.430Z,63.33
2022-12-18T09:40:02.451Z,61.97
2022-12-18T09:42:32.410Z,56.00
2022-12-18T09:45:03.375Z,59.25
2022-12-18T09:47:39.972Z,67.60
2022-12-18T09:50:27.664Z,59.83
2022-12-18T09:53:00.208Z,63.50
2022-12-18T09:55:37.463Z,56.65
2022-12-18T09:58:16.927Z,55.00
2022-12-18T10:00:47.150Z,57.40
2022-12-18T10:03:19.878Z,60.92
2022-12-18T10:06:02.522Z,62.45
2022-12-18T10:08:43.531Z,64.55
2022-12-18T10:11:32.043Z,58.33
2022-12-18T10:14:10.087Z,60.45
2022-12-18T10:16:50.458Z,61.15
2022-12-18T10:19:35.248Z,60.08
2022-12-18T10:22:12.003Z,65.75
2022-12-18T10:24:48.885Z,55.35
2022-12-18T10:27:20.306Z,59.40
2022-12-18T10:29:50.549Z,60.03
2022-12-18T10:32:23.223Z,56.90
2022-12-18T10:35:00.417Z,63.25
2022-12-18T10:37:33.377Z,60.08
2022-12-18T10:40:22.230Z,58.97
2022-12-18T10:43:07.831Z,60.67
2022-12-18T10:45:37.800Z,55.47
2022-12-18T10:48:08.281Z,54.13
2022-12-18T10:51:09.612Z,61.40
2022-12-18T10:53:33.480Z,55.33
2022-12-18T10:56:04.418Z,60.20
2022-12-18T10:58:36.131Z,59.50
2022-12-18T11:01:14.703Z,51.83
2022-12-18T11:03:46.608Z,54.28
2022-12-18T11:06:21.234Z,58.28
2022-12-18T11:09:06.565Z,57.25
2022-12-18T11:11:40.997Z,49.80
2022-12-18T11:14:20.273Z,55.13
2022-12-18T11:19:43.471Z,49.88
2022-12-18T11:22:27.532Z,52.58
2022-12-18T11:27:58.758Z,48.75
2022-12-18T11:30:32.208Z,53.58
2022-12-18T11:33:07.690Z,52.97
2022-12-18T11:35:43.798Z,50.70
2022-12-18T11:38:27.470Z,58.90
2022-12-18T11:41:03.047Z,49.17
2022-12-18T11:43:35.798Z,56.75
2022-12-18T11:46:16.111Z,49.13
2022-12-18T11:48:53.669Z,49.70
2022-12-18T11:51:30.544Z,61.25
2022-12-18T11:54:04.116Z,48.22
2022-12-18T11:56:39.480Z,53.85
2022-12-18T11:59:19.382Z,48.83
2022-12-18T12:01:55.618Z,49.55
2022-12-18T12:04:49.615Z,51.75
2022-12-18T12:10:07.344Z,53.75
2022-12-18T12:12:54.746Z,53.63
2022-12-18T12:15:33.677Z,52.55
2022-12-18T12:18:11.812Z,51.47
2022-12-18T12:20:51.902Z,51.00
2022-12-18T12:23:34.834Z,50.08
2022-12-18T12:26:11.186Z,49.08
2022-12-18T12:28:56.374Z,51.22
2022-12-18T12:31:36.484Z,50.17
2022-12-18T12:34:18.719Z,50.78
2022-12-18T12:37:11.549Z,53.15
2022-12-18T12:39:43.934Z,45.67
2022-12-18T12:42:38.185Z,45.25
2022-12-18T12:45:17.558Z,46.38
2022-12-18T12:47:50.371Z,49.85
2022-12-18T12:50:23.722Z,49.30
2022-12-18T12:52:56.703Z,48.78
2022-12-18T12:55:28.799Z,52.78
2022-12-18T12:58:11.995Z,54.65
2022-12-18T13:00:48.167Z,50.13
2022-12-18T13:03:35.769Z,47.33
2022-12-18T13:06:13.305Z,48.53
2022-12-18T13:08:58.377Z,49.20
2022-12-18T13:11:56.298Z,50.13
2022-12-18T13:14:35.669Z,48.17
2022-12-18T13:17:30.450Z,50.83
2022-12-18T13:20:15.605Z,45.38
2022-12-18T13:22:49.655Z,49.20
2022-12-18T13:25:34.463Z,50.78
2022-12-18T13:28:15.917Z,50.08
2022-12-18T13:31:03.547Z,46.70
2022-12-18T13:34:16.976Z,48.08
2022-12-18T13:36:38.144Z,45.33
2022-12-18T13:39:36.062Z,48.28
2022-12-18T13:42:49.340Z,47.50
2022-12-18T13:45:46.144Z,51.25
2022-12-18T13:48:26.326Z,49.55
2022-12-18T13:51:06.700Z,49.67
2022-12-18T13:53:45.789Z,48.53
2022-12-18T13:56:20.355Z,45.33
2022-12-18T13:59:14.650Z,50.55
2022-12-18T14:01:50.011Z,47.75
2022-12-18T14:04:30.992Z,44.50
2022-12-18T14:07:05.413Z,52.78
2022-12-18T14:12:29.870Z,50.13
2022-12-18T14:14:59.807Z,46.70
2022-12-18T14:17:30.289Z,45.88
2022-12-18T14:20:04.236Z,49.22
2022-12-18T14:22:34.860Z,49.65
2022-12-18T14:25:21.437Z,48.13
2022-12-18T14:27:53.501Z,47.88
2022-12-18T14:30:31.599Z,49.08
2022-12-18T14:33:06.519Z,56.72
2022-12-18T14:35:41.316Z,48.25
2022-12-18T14:38:26.253Z,52.00
2022-12-18T14:40:57.285Z,51.30
2022-12-18T14:43:27.103Z,52.67
2022-12-18T14:45:58.008Z,54.55
2022-12-18T14:48:40.521Z,59.03
2022-12-18T14:51:21.036Z,53.03
2022-12-18T14:53:54.693Z,56.45
2022-12-18T14:56:26.683Z,52.70
2022-12-18T14:58:59.170Z,56.53
2022-12-18T15:01:31.919Z,52.45
2022-12-18T15:04:04.010Z,52.25
2022-12-18T15:06:40.886Z,51.53
2022-12-18T15:09:26.414Z,51.92
2022-12-18T15:12:00.138Z,57.67
2022-12-18T15:14:38.749Z,50.63
2022-12-18T15:17:17.999Z,54.28
2022-12-18T15:19:49.284Z,55.70
2022-12-18T15:22:28.343Z,53.70
2022-12-18T15:24:59.377Z,58.63
2022-12-18T15:27:38.636Z,56.70
2022-12-18T15:30:26.397Z,54.92
2022-12-18T15:33:16.751Z,53.75
2022-12-18T15:35:47.247Z,59.00
2022-12-18T15:38:19.774Z,61.78
2022-12-18T15:40:49.541Z,60.80
2022-12-18T15:43:31.854Z,53.97
2022-12-18T15:46:01.654Z,59.65
2022-12-18T15:48:31.984Z,54.35
2022-12-18T15:51:01.969Z,62.15
2022-12-18T15:53:36.752Z,60.50
2022-12-18T15:56:23.506Z,57.92
2022-12-18T15:58:54.791Z,60.40
2022-12-18T16:01:26.704Z,57.17
2022-12-18T16:03:57.054Z,51.70
2022-12-18T16:06:30.491Z,52.83
2022-12-18T16:09:09.035Z,53.65
2022-12-18T16:11:44.098Z,51.80
2022-12-18T16:14:20.609Z,56.17
2022-12-18T16:16:52.610Z,59.55
2022-12-18T16:19:24.121Z,52.55
2022-12-18T16:21:55.700Z,58.70
2022-12-18T16:24:30.443Z,55.50
2022-12-18T16:27:01.437Z,53.92
2022-12-18T16:29:32.397Z,58.40
2022-12-18T16:32:03.829Z,53.15
2022-12-18T16:34:36.066Z,53.95
2022-12-18T16:37:08.463Z,60.15
2022-12-18T16:39:41.860Z,53.55
2022-12-18T16:42:17.410Z,51.60
2022-12-18T16:44:48.437Z,56.92
2022-12-18T16:47:18.354Z,51.53
2022-12-18T16:49:51.684Z,54.63
2022-12-18T16:52:22.005Z,50.90
2022-12-18T16:54:54.485Z,55.70
2022-12-18T16:57:25.482Z,48.78
2022-12-18T16:59:58.743Z,54.58
2022-12-18T17:02:33.053Z,53.28
2022-12-18T17:05:03.360Z,54.80
2022-12-18T17:07:33.137Z,54.55
2022-12-18T17:10:07.821Z,52.08
2022-12-18T17:12:37.926Z,50.47
2022-12-18T17:15:09.034Z,53.63
2022-12-18T17:17:38.837Z,48.40
2022-12-18T17:20:09.126Z,44.55
2022-12-18T17:22:38.983Z,48.30
2022-12-18T17:25:12.513Z,49.53
2022-12-18T17:27:42.419Z,49.80
2022-12-18T17:30:14.025Z,49.63
2022-12-18T17:32:43.833Z,49.60
2022-12-18T17:35:13.583Z,49.63
2022-12-18T17:37:43.338Z,45.55
2022-12-18T17:40:15.945Z,49.60
2022-12-18T17:42:48.106Z,45.78
2022-12-18T17:45:18.056Z,46.92
2022-12-18T17:47:47.901Z,49.38
2022-12-18T17:50:17.921Z,50.50
2022-12-18T17:52:47.722Z,46.22
2022-12-18T17:55:20.070Z,49.83
2022-12-18T17:57:49.860Z,61.08
2022-12-18T18:00:20.367Z,40.38
2022-12-18T18:02:50.259Z,50.33
2022-12-18T18:05:20.172Z,53.00
2022-12-18T18:07:49.989Z,45.83
2022-12-18T18:10:24.268Z,46.08
2022-12-18T18:13:06.580Z,39.88
2022-12-18T18:15:42.367Z,44.38
2022-12-18T18:18:12.168Z,45.25
2022-12-18T18:20:44.860Z,47.75
2022-12-18T18:23:14.693Z,43.90
2022-12-18T18:25:47.082Z,45.97
2022-12-18T18:28:16.902Z,49.20
2022-12-18T18:30:46.847Z,51.95
2022-12-18T18:33:16.593Z,47.88
2022-12-18T18:35:54.706Z,39.22
2022-12-18T18:38:24.845Z,58.30
2022-12-18T18:41:04.770Z,48.33
2022-12-18T18:43:34.988Z,48.05
2022-12-18T18:46:07.527Z,48.13
2022-12-18T18:48:42.367Z,43.97
2022-12-18T18:51:21.106Z,47.28
2022-12-18T18:53:53.257Z,46.78
2022-12-18T18:56:56.172Z,45.97
2022-12-18T18:59:18.179Z,40.75
2022-12-18T19:01:48.242Z,40.70
2022-12-18T19:04:18.117Z,45.92
2022-12-18T19:06:49.104Z,45.20
2022-12-18T19:09:19.561Z,43.63
2022-12-18T19:12:15.665Z,43.05
2022-12-18T19:14:45.899Z,47.47
2022-12-18T19:17:15.673Z,42.67
2022-12-18T19:19:45.544Z,45.15
2022-12-18T19:22:15.474Z,45.92
2022-12-18T19:24:45.977Z,43.58
2022-12-18T19:27:18.363Z,40.85
2022-12-18T19:29:48.145Z,44.03
2022-12-18T19:32:18.003Z,43.38
2022-12-18T19:34:48.070Z,37.67
2022-12-18T19:37:18.472Z,39.55
2022-12-18T19:39:48.413Z,47.20
2022-12-18T19:42:26.269Z,41.58
2022-12-18T19:44:59.317Z,43.40
2022-12-18T19:47:36.308Z,39.15
2022-12-18T19:50:06.448Z,42.28
2022-12-18T19:52:36.368Z,42.95
2022-12-18T19:55:07.405Z,42.75
2022-12-18T19:57:39.777Z,43.50
2022-12-18T20:00:16.895Z,45.13
2022-12-18T20:02:48.481Z,42.38
2022-12-18T20:05:24.986Z,43.17
2022-12-18T20:07:55.154Z,44.35
2022-12-18T20:10:24.941Z,44.65
2022-12-18T20:12:57.282Z,42.90
2022-12-18T20:15:27.668Z,42.72
2022-12-18T20:17:57.405Z,46.85
2022-12-18T20:20:27.524Z,42.38
2022-12-18T20:22:57.804Z,41.97
2022-12-18T20:25:27.583Z,42.42
2022-12-18T20:28:00.014Z,43.03
2022-12-18T20:30:30.004Z,41.88
2022-12-18T20:32:59.833Z,39.83
2022-12-18T20:35:32.085Z,33.95
2022-12-18T20:38:02.458Z,43.47
2022-12-18T20:40:33.028Z,39.20
2022-12-18T20:43:07.101Z,37.35
2022-12-18T20:45:37.256Z,44.08
2022-12-18T20:48:09.363Z,43.35
2022-12-18T20:50:39.101Z,46.25
2022-12-18T20:53:09.043Z,41.85
2022-12-18T20:55:43.437Z,45.42
2022-12-18T21:00:45.418Z,37.50
2022-12-18T21:03:15.814Z,41.85
2022-12-18T21:05:45.616Z,42.13
2022-12-18T21:08:15.419Z,38.85
2022-12-18T21:10:45.245Z,41.38
2022-12-18T21:13:15.232Z,46.17
2022-12-18T21:15:46.973Z,39.70
2022-12-18T21:18:16.727Z,41.22
2022-12-18T21:20:46.690Z,40.25
2022-12-18T21:23:17.055Z,43.40
2022-12-18T21:25:48.344Z,40.17
2022-12-18T21:28:25.505Z,42.28
2022-12-18T21:30:55.560Z,40.60
2022-12-18T21:33:25.360Z,45.92
2022-12-18T21:35:55.202Z,40.53
2022-12-18T21:38:26.020Z,42.67
2022-12-18T21:40:55.876Z,42.63
2022-12-18T21:43:40.844Z,43.70
2022-12-18T21:46:10.775Z,43.75
2022-12-18T21:48:43.463Z,40.20
2022-12-18T21:51:13.343Z,40.45
2022-12-18T21:53:43.208Z,44.50
2022-12-18T21:56:13.129Z,47.03
2022-12-18T21:58:55.439Z,43.58
2022-12-18T22:01:36.604Z,48.17
2022-12-18T22:04:07.747Z,43.80
2022-12-18T22:06:37.811Z,47.67
2022-12-18T22:09:08.740Z,48.97
2022-12-18T22:11:38.645Z,46.28
2022-12-18T22:14:11.708Z,47.35
2022-12-18T22:16:41.774Z,49.25
2022-12-18T22:19:13.087Z,40.92
2022-12-18T22:21:46.649Z,43.60
2022-12-18T22:24:18.744Z,41.15
2022-12-18T22:26:49.922Z,44.30
2022-12-18T22:29:36.391Z,50.03
2022-12-18T22:32:06.847Z,54.92
2022-12-18T22:34:37.052Z,47.05
2022-12-18T22:37:07.146Z,46.53
2022-12-18T22:39:36.964Z,41.50
2022-12-18T22:42:09.697Z,44.97
2022-12-18T22:44:42.103Z,49.00
2022-12-18T22:47:15.553Z,46.90
2022-12-18T22:49:45.417Z,42.65
2022-12-18T22:52:15.438Z,38.85
2022-12-18T22:54:48.321Z,43.65
2022-12-18T22:57:18.105Z,40.15
2022-12-18T22:59:50.490Z,42.33
2022-12-18T23:02:20.552Z,43.00
2022-12-18T23:04:50.444Z,41.85
2022-12-18T23:07:20.626Z,46.95
2022-12-18T23:09:50.619Z,47.65
2022-12-18T23:12:23.553Z,40.50
2022-12-18T23:14:56.114Z,42.08
2022-12-18T23:17:25.952Z,40.97
2022-12-18T23:19:55.759Z,36.53
2022-12-18T23:22:25.548Z,41.60
2022-12-18T23:24:55.328Z,43.90
2022-12-18T23:27:25.121Z,39.53
2022-12-18T23:29:57.452Z,33.83
2022-12-18T23:32:28.689Z,42.17
2022-12-18T23:34:58.504Z,42.17
2022-12-18T23:37:56.925Z,49.08
2022-12-18T23:40:21.112Z,41.90
2022-12-18T23:42:50.874Z,41.60
2022-12-18T23:45:23.248Z,39.20
2022-12-18T23:47:53.078Z,38.35
2022-12-18T23:50:28.989Z,39.53
2022-12-18T23:53:05.572Z,40.10
2022-12-18T23:55:40.158Z,40.33
2022-12-18T23:58:11.053Z,39.92
